Time;durP1;ratioP1;P1;durP2;ratioP2;P2;SDS_P1;SDS_P2;PMS_P1;PMS_P2;Temp;Humidity;BMP_temperature;BMP_pressure;BME280_temperature;BME280_humidity;BME280_pressure;Samples;Min_cycle;Max_cycle;Signal;HPM_P1;HPM_P2
2021/09/26 00:00:00;;;;;;;1.50;1.00;;;17.50;98.20;;;;;;5054616;28;20589;-80
2021/09/26 00:02:27;;;;;;;1.50;1.00;;;17.50;98.20;;;;;;5063728;28;20463;-79
2021/09/26 00:04:54;;;;;;;1.50;1.00;;;17.50;98.20;;;;;;5063971;28;20534;-79
2021/09/26 00:07:23;;;;;;;1.50;1.00;;;17.50;98.20;;;;;;5049372;28;20516;-79
2021/09/26 00:09:50;;;;;;;1.50;1.03;;;17.50;98.20;;;;;;5059579;28;20953;-78
2021/09/26 00:12:16;;;;;;;1.50;0.93;;;17.50;98.20;;;;;;5061750;28;20462;-78
2021/09/26 00:14:43;;;;;;;1.50;0.93;;;17.60;98.20;;;;;;5051803;28;20534;-78
2021/09/26 00:17:10;;;;;;;1.50;1.00;;;17.60;98.20;;;;;;5064891;28;20559;-78
2021/09/26 00:19:37;;;;;;;1.50;1.00;;;17.60;98.20;;;;;;5058085;28;20849;-78
2021/09/26 00:22:05;;;;;;;1.50;0.93;;;17.60;98.20;;;;;;5055382;28;20466;-78
2021/09/26 00:24:33;;;;;;;1.50;0.90;;;17.70;98.20;;;;;;5055388;28;20703;-78
2021/09/26 00:27:00;;;;;;;1.50;1.00;;;17.70;98.20;;;;;;5063451;28;20494;-80
2021/09/26 00:29:27;;;;;;;1.50;0.90;;;17.80;98.20;;;;;;5053159;28;20456;-79
2021/09/26 00:31:54;;;;;;;1.50;1.00;;;17.80;98.20;;;;;;5053547;28;20474;-79
2021/09/26 00:34:20;;;;;;;1.50;0.90;;;17.80;98.20;;;;;;5058327;28;20960;-82
2021/09/26 00:36:47;;;;;;;1.50;1.00;;;17.90;98.20;;;;;;5053102;28;20860;-78
2021/09/26 00:39:14;;;;;;;1.50;0.97;;;17.90;98.20;;;;;;5053923;28;20490;-80
2021/09/26 00:41:42;;;;;;;1.50;0.90;;;17.90;98.20;;;;;;5052201;28;20480;-79
2021/09/26 00:44:09;;;;;;;1.50;0.90;;;17.90;98.10;;;;;;5056922;28;20458;-79
2021/09/26 00:46:36;;;;;;;1.50;0.90;;;18.00;98.00;;;;;;5058729;28;20547;-79
2021/09/26 00:49:03;;;;;;;1.50;1.00;;;18.00;98.00;;;;;;5055272;28;20462;-79
2021/09/26 00:51:30;;;;;;;1.50;0.90;;;18.00;98.00;;;;;;5053307;28;20466;-79
2021/09/26 00:53:57;;;;;;;1.50;1.00;;;18.00;98.00;;;;;;5064170;28;20484;-80
2021/09/26 00:56:24;;;;;;;1.50;1.00;;;18.00;98.10;;;;;;5060547;28;20879;-79
2021/09/26 00:58:54;;;;;;;1.50;1.00;;;18.00;98.10;;;;;;5054558;28;20952;-79
2021/09/26 01:01:20;;;;;;;1.50;0.90;;;18.00;97.90;;;;;;5054917;28;20553;-80
2021/09/26 01:03:47;;;;;;;2.83;2.47;;;18.00;98.00;;;;;;5066155;28;20462;-80
2021/09/26 01:06:42;;;;;;;1.50;1.00;;;18.10;97.80;;;;;;5056411;28;20486;-79
2021/09/26 01:09:20;;;;;;;1.50;0.90;;;18.10;97.80;;;;;;5055412;28;21004;-78
2021/09/26 01:12:05;;;;;;;1.50;0.90;;;18.10;97.80;;;;;;5061038;28;20458;-79
2021/09/26 01:14:41;;;;;;;1.50;1.00;;;18.10;97.70;;;;;;5055636;28;20553;-80
2021/09/26 01:17:15;;;;;;;1.50;0.90;;;18.10;97.70;;;;;;5055133;28;20493;-79
2021/09/26 01:20:03;;;;;;;1.50;1.10;;;18.10;97.60;;;;;;5061701;28;20513;-78
2021/09/26 01:22:52;;;;;;;1.50;1.00;;;18.10;97.70;;;;;;5058021;28;20903;-79
2021/09/26 01:25:33;;;;;;;1.50;1.00;;;18.10;97.80;;;;;;5049201;28;20468;-79
2021/09/26 01:28:27;;;;;;;1.50;1.00;;;18.10;98.00;;;;;;5058740;28;20838;-79
2021/09/26 01:30:58;;;;;;;1.50;0.90;;;18.00;97.90;;;;;;5049454;28;20512;-77
2021/09/26 01:33:29;;;;;;;1.50;0.90;;;18.00;97.70;;;;;;5036121;28;20486;-79
2021/09/26 01:36:00;;;;;;;1.50;1.00;;;18.00;97.70;;;;;;5045189;28;20504;-80
2021/09/26 01:38:34;;;;;;;1.50;1.00;;;18.00;97.50;;;;;;5049703;28;21011;-79
2021/09/26 01:41:04;;;;;;;1.50;1.00;;;18.00;97.50;;;;;;5042172;28;20521;-80
2021/09/26 01:43:35;;;;;;;1.50;0.90;;;18.00;97.70;;;;;;5053020;28;20461;-79
2021/09/26 01:46:08;;;;;;;1.50;1.00;;;17.90;97.80;;;;;;5051183;28;21007;-79
2021/09/26 01:48:41;;;;;;;1.50;1.00;;;18.00;97.80;;;;;;5055081;28;20960;-80
2021/09/26 01:51:10;;;;;;;1.50;1.00;;;17.90;97.80;;;;;;5051403;28;20541;-80
2021/09/26 01:53:42;;;;;;;1.50;0.90;;;17.90;97.90;;;;;;5050375;28;20466;-79
2021/09/26 01:56:11;;;;;;;1.50;0.90;;;17.90;97.80;;;;;;5059718;28;20473;-78
2021/09/26 01:58:38;;;;;;;1.50;1.00;;;17.90;97.80;;;;;;5060065;28;20505;-78
2021/09/26 02:01:08;;;;;;;1.50;1.00;;;17.90;97.80;;;;;;5052728;28;20490;-80
2021/09/26 02:03:36;;;;;;;1.50;1.10;;;18.00;97.80;;;;;;5051231;28;20467;-80
2021/09/26 02:06:03;;;;;;;1.50;1.00;;;18.00;97.80;;;;;;5061989;28;20482;-79
2021/09/26 02:08:31;;;;;;;1.70;1.40;;;18.00;98.00;;;;;;5059281;28;20477;-79
2021/09/26 02:10:58;;;;;;;1.50;0.90;;;18.00;98.00;;;;;;5051838;28;20458;-78
2021/09/26 02:13:25;;;;;;;1.50;0.90;;;18.00;98.10;;;;;;5059785;28;20462;-80
2021/09/26 02:15:54;;;;;;;1.50;0.93;;;18.00;98.00;;;;;;5061762;28;20481;-79
2021/09/26 02:18:22;;;;;;;1.50;0.97;;;18.10;98.20;;;;;;5051766;28;20472;-79
2021/09/26 02:20:49;;;;;;;1.50;0.90;;;18.10;98.20;;;;;;5052697;28;20991;-78
2021/09/26 02:23:17;;;;;;;1.50;0.90;;;18.10;98.20;;;;;;5063122;28;20465;-80
2021/09/26 02:25:44;;;;;;;1.50;0.90;;;18.10;98.20;;;;;;5057119;28;20477;-79
2021/09/26 02:28:11;;;;;;;1.50;0.90;;;18.10;98.00;;;;;;5049310;28;20471;-79
2021/09/26 02:30:40;;;;;;;1.50;0.90;;;18.20;98.00;;;;;;5050453;28;20841;-78
2021/09/26 02:33:06;;;;;;;1.50;1.00;;;18.20;98.00;;;;;;5055832;28;20564;-80
2021/09/26 02:35:35;;;;;;;1.50;1.00;;;18.20;98.00;;;;;;5055787;28;20454;-79
2021/09/26 02:38:01;;;;;;;1.50;1.00;;;18.20;98.00;;;;;;5055523;28;20484;-79
2021/09/26 02:40:28;;;;;;;2.57;1.30;;;18.20;98.20;;;;;;5054098;28;20482;-80
2021/09/26 02:43:15;;;;;;;1.50;0.90;;;18.20;98.20;;;;;;5056440;28;20463;-79
2021/09/26 02:45:47;;;;;;;1.50;1.00;;;18.20;98.20;;;;;;5059769;28;20467;-77
2021/09/26 02:48:18;;;;;;;1.50;1.00;;;18.30;98.20;;;;;;5054081;28;20984;-79
2021/09/26 02:50:48;;;;;;;1.50;0.90;;;18.20;98.20;;;;;;5049871;28;20844;-80
2021/09/26 02:53:16;;;;;;;1.50;0.90;;;18.20;98.20;;;;;;5056115;28;20606;-80
2021/09/26 02:55:46;;;;;;;1.50;0.97;;;18.20;98.20;;;;;;5054821;28;20462;-80
2021/09/26 02:58:14;;;;;;;1.50;1.00;;;18.20;98.20;;;;;;5052847;28;20465;-79
2021/09/26 03:00:43;;;;;;;1.50;0.90;;;18.20;98.20;;;;;;5052636;28;21294;-79
2021/09/26 03:03:13;;;;;;;1.73;1.40;;;18.20;98.20;;;;;;5055579;28;20466;-79
2021/09/26 03:05:43;;;;;;;1.50;1.10;;;18.20;98.20;;;;;;5068156;28;20461;-79
2021/09/26 03:08:12;;;;;;;1.50;0.90;;;18.20;98.20;;;;;;5050961;28;20470;-79
2021/09/26 03:10:41;;;;;;;1.50;0.90;;;18.20;98.20;;;;;;5061921;28;20461;-79
2021/09/26 03:13:08;;;;;;;1.50;0.90;;;18.20;98.20;;;;;;5056208;28;20458;-80
2021/09/26 03:15:35;;;;;;;1.50;0.90;;;18.30;98.20;;;;;;5053417;28;20570;-80
2021/09/26 03:18:02;;;;;;;1.50;0.90;;;18.30;98.20;;;;;;5057820;28;20458;-77
2021/09/26 03:20:29;;;;;;;1.50;0.90;;;18.30;98.20;;;;;;5059898;28;20486;-80
2021/09/26 03:22:56;;;;;;;1.60;1.23;;;18.30;98.20;;;;;;5047721;28;20477;-80
2021/09/26 03:25:24;;;;;;;1.50;0.90;;;18.30;98.20;;;;;;5051412;28;20462;-79
2021/09/26 03:27:51;;;;;;;1.60;1.20;;;18.30;98.20;;;;;;5062651;28;20461;-79
2021/09/26 03:30:18;;;;;;;1.50;0.97;;;18.30;98.20;;;;;;5055346;28;20733;-79
2021/09/26 03:32:46;;;;;;;1.50;0.90;;;18.30;98.20;;;;;;5054584;28;20458;-77
2021/09/26 03:35:14;;;;;;;1.50;0.97;;;18.30;98.20;;;;;;5051601;28;20466;-79
2021/09/26 03:37:41;;;;;;;1.50;1.00;;;18.20;98.20;;;;;;5061148;28;20504;-78
2021/09/26 03:40:10;;;;;;;1.50;1.10;;;18.20;98.20;;;;;;5055276;28;20485;-79
2021/09/26 03:42:39;;;;;;;1.50;1.00;;;18.20;98.20;;;;;;5059345;28;20548;-80
2021/09/26 03:45:07;;;;;;;1.50;0.97;;;18.20;98.20;;;;;;5062469;28;20472;-80
2021/09/26 03:47:34;;;;;;;1.50;0.90;;;18.20;98.20;;;;;;5056185;28;20826;-81
2021/09/26 03:50:01;;;;;;;1.50;1.00;;;18.20;98.20;;;;;;5055436;28;20466;-80
2021/09/26 03:52:28;;;;;;;1.50;1.00;;;18.20;98.20;;;;;;5058944;28;20466;-79
2021/09/26 03:54:55;;;;;;;1.50;0.90;;;18.30;98.20;;;;;;5060745;28;20461;-78
2021/09/26 03:57:22;;;;;;;1.50;0.93;;;18.30;98.20;;;;;;5055480;28;20483;-77
2021/09/26 03:59:50;;;;;;;1.50;0.90;;;18.30;98.20;;;;;;5056001;28;20546;-77
2021/09/26 04:02:17;;;;;;;1.50;1.00;;;18.30;98.20;;;;;;5057327;28;20474;-78
2021/09/26 04:04:44;;;;;;;1.50;1.00;;;18.20;98.20;;;;;;5063861;28;20480;-77
2021/09/26 04:07:11;;;;;;;1.50;0.90;;;18.20;98.20;;;;;;5066633;28;20505;-77
2021/09/26 04:09:37;;;;;;;1.50;0.90;;;18.20;98.20;;;;;;5059152;28;20470;-78
2021/09/26 04:12:05;;;;;;;1.60;1.30;;;18.20;98.20;;;;;;5057398;28;20462;-75
2021/09/26 04:14:32;;;;;;;1.50;0.90;;;18.20;98.20;;;;;;5063751;28;20481;-76
2021/09/26 04:17:00;;;;;;;1.50;0.90;;;18.20;98.20;;;;;;5053717;28;20486;-76
2021/09/26 04:19:26;;;;;;;1.50;0.90;;;18.20;98.20;;;;;;5052307;28;20918;-78
2021/09/26 04:21:53;;;;;;;1.50;0.93;;;18.20;98.20;;;;;;5054344;28;20864;-79
2021/09/26 04:24:20;;;;;;;1.50;1.00;;;18.10;98.20;;;;;;5053490;28;20462;-77
2021/09/26 04:26:47;;;;;;;1.50;1.00;;;18.10;98.20;;;;;;5052105;28;20931;-78
2021/09/26 04:29:14;;;;;;;1.50;1.00;;;18.10;98.20;;;;;;5054804;28;20974;-76
2021/09/26 04:31:41;;;;;;;1.50;0.90;;;18.10;98.20;;;;;;5061204;28;20469;-78
2021/09/26 04:34:09;;;;;;;1.50;1.00;;;18.10;98.20;;;;;;5054394;28;20466;-79
2021/09/26 04:36:36;;;;;;;1.50;1.00;;;18.00;98.20;;;;;;5055252;28;20490;-78
2021/09/26 04:39:04;;;;;;;1.50;1.00;;;18.00;98.20;;;;;;5052433;28;20476;-78
2021/09/26 04:41:31;;;;;;;1.50;0.90;;;17.90;98.20;;;;;;5061634;28;20745;-78
2021/09/26 04:43:58;;;;;;;1.50;1.00;;;17.90;98.20;;;;;;5057686;28;20472;-78
2021/09/26 04:46:25;;;;;;;1.50;0.90;;;17.80;98.20;;;;;;5053425;28;20884;-77
2021/09/26 04:48:52;;;;;;;1.50;1.00;;;17.80;98.20;;;;;;5056031;28;20517;-79
2021/09/26 04:51:20;;;;;;;1.50;0.90;;;17.70;98.20;;;;;;5065141;28;20461;-79
2021/09/26 04:53:47;;;;;;;1.50;0.90;;;17.70;98.20;;;;;;5053709;28;20916;-80
2021/09/26 04:56:14;;;;;;;1.50;1.00;;;17.60;98.20;;;;;;5054650;28;20489;-78
2021/09/26 04:58:41;;;;;;;1.50;1.00;;;17.60;98.20;;;;;;5059801;28;20465;-79
2021/09/26 05:01:08;;;;;;;1.50;0.90;;;17.50;98.20;;;;;;5068688;28;20491;-76
2021/09/26 05:03:35;;;;;;;1.80;1.37;;;17.50;98.20;;;;;;5052231;28;20466;-78
2021/09/26 05:06:02;;;;;;;1.50;0.90;;;17.50;98.20;;;;;;5055199;28;20494;-79
2021/09/26 05:08:30;;;;;;;1.50;1.00;;;17.50;98.20;;;;;;5056539;28;20465;-79
2021/09/26 05:10:57;;;;;;;1.50;0.93;;;17.50;98.20;;;;;;5057644;28;20469;-78
2021/09/26 05:13:23;;;;;;;1.60;1.13;;;17.40;98.20;;;;;;5050747;28;20481;-79
2021/09/26 05:15:50;;;;;;;1.50;0.93;;;17.50;98.20;;;;;;5057706;28;20513;-80
2021/09/26 05:18:18;;;;;;;1.50;0.90;;;17.50;98.20;;;;;;5054473;28;20838;-79
2021/09/26 05:20:45;;;;;;;1.50;0.93;;;17.50;98.20;;;;;;5052588;28;20478;-79
2021/09/26 05:23:12;;;;;;;1.50;0.90;;;17.50;98.20;;;;;;5053152;28;20473;-81
2021/09/26 05:25:40;;;;;;;1.50;0.90;;;17.50;98.20;;;;;;5052919;28;20477;-79
2021/09/26 05:28:07;;;;;;;1.70;1.40;;;17.60;98.20;;;;;;5052528;28;20477;-78
2021/09/26 05:30:35;;;;;;;1.50;0.90;;;17.60;98.20;;;;;;5053386;28;20465;-79
2021/09/26 05:33:01;;;;;;;1.50;0.90;;;17.60;98.20;;;;;;5050567;28;20933;-79
2021/09/26 05:35:29;;;;;;;1.50;0.90;;;17.60;98.20;;;;;;5042527;28;20470;-80
2021/09/26 05:37:56;;;;;;;1.50;1.00;;;17.60;98.20;;;;;;5048520;28;20458;-80
2021/09/26 05:40:23;;;;;;;1.50;0.90;;;17.60;98.20;;;;;;5049536;28;20517;-79
2021/09/26 05:42:52;;;;;;;1.50;1.00;;;17.60;98.20;;;;;;5051081;28;20893;-79
2021/09/26 05:45:19;;;;;;;1.50;1.00;;;17.60;98.20;;;;;;5052903;28;20530;-79
2021/09/26 05:47:46;;;;;;;1.50;0.90;;;17.50;98.20;;;;;;5052569;28;20478;-79
2021/09/26 05:50:13;;;;;;;1.50;0.90;;;17.60;98.20;;;;;;5054809;28;20485;-77
2021/09/26 05:52:40;;;;;;;1.50;0.90;;;17.60;98.20;;;;;;5051569;28;20458;-79
2021/09/26 05:55:10;;;;;;;1.50;1.00;;;17.60;98.20;;;;;;5056432;28;20457;-79
2021/09/26 05:57:38;;;;;;;1.50;0.90;;;17.60;98.20;;;;;;5054916;28;20577;-77
2021/09/26 06:00:08;;;;;;;1.50;1.00;;;17.60;98.20;;;;;;5048907;28;20470;-78
2021/09/26 06:02:36;;;;;;;1.50;1.00;;;17.60;98.20;;;;;;5048359;28;20490;-78
2021/09/26 06:05:05;;;;;;;1.50;0.97;;;17.70;98.20;;;;;;5048591;28;20466;-78
2021/09/26 06:07:32;;;;;;;1.70;1.20;;;17.70;98.20;;;;;;5046591;28;20485;-77
2021/09/26 06:10:00;;;;;;;1.50;0.97;;;17.70;98.20;;;;;;5052576;28;20470;-78
2021/09/26 06:12:27;;;;;;;1.50;1.00;;;17.70;98.20;;;;;;5052597;28;20473;-78
2021/09/26 06:14:54;;;;;;;1.50;1.00;;;17.70;98.20;;;;;;5046299;28;20470;-77
2021/09/26 06:17:23;;;;;;;1.50;1.00;;;17.70;98.20;;;;;;5058447;28;20505;-81
2021/09/26 06:19:52;;;;;;;1.50;0.93;;;17.70;98.20;;;;;;5060141;28;20470;-79
2021/09/26 06:22:19;;;;;;;1.50;0.90;;;17.80;98.20;;;;;;5050849;28;20521;-80
2021/09/26 06:24:47;;;;;;;1.60;1.20;;;17.80;98.20;;;;;;5049838;28;20949;-78
2021/09/26 06:27:15;;;;;;;1.50;0.90;;;17.90;98.20;;;;;;5052756;28;20480;-79
2021/09/26 06:29:44;;;;;;;1.50;0.90;;;17.90;98.20;;;;;;5048034;28;20504;-80
2021/09/26 06:32:11;;;;;;;1.50;1.00;;;18.00;98.20;;;;;;5048833;28;20482;-80
2021/09/26 06:34:41;;;;;;;1.50;1.00;;;18.00;98.20;;;;;;5049171;28;20460;-80
2021/09/26 06:37:08;;;;;;;1.50;1.00;;;18.00;98.20;;;;;;5059241;28;21077;-79
2021/09/26 06:39:36;;;;;;;1.50;0.90;;;18.10;98.20;;;;;;5057503;28;20466;-80
2021/09/26 06:42:04;;;;;;;1.50;0.90;;;18.10;98.20;;;;;;5067029;28;20488;-80
2021/09/26 06:44:31;;;;;;;1.50;0.90;;;18.10;98.20;;;;;;5058580;28;20557;-79
2021/09/26 06:47:20;;;;;;;1.50;0.90;;;18.20;98.20;;;;;;5047956;28;20482;-79
2021/09/26 06:49:51;;;;;;;1.50;0.90;;;18.20;98.20;;;;;;5054006;28;20564;-80
2021/09/26 06:52:31;;;;;;;1.50;0.90;;;18.20;98.20;;;;;;5051922;28;20509;-79
2021/09/26 06:55:03;;;;;;;1.50;1.00;;;18.30;98.20;;;;;;5049296;28;20464;-81
2021/09/26 06:57:32;;;;;;;1.50;1.00;;;18.30;98.20;;;;;;5052220;28;20597;-79
2021/09/26 07:00:04;;;;;;;1.50;0.90;;;18.40;98.20;;;;;;5047654;28;20504;-80
2021/09/26 07:02:34;;;;;;;1.50;0.90;;;18.50;98.20;;;;;;5043958;28;21000;-82
2021/09/26 07:05:08;;;;;;;1.50;1.00;;;18.50;98.20;;;;;;5038168;28;20466;-79
2021/09/26 07:07:35;;;;;;;1.50;0.90;;;18.60;98.20;;;;;;5055068;28;20553;-79
2021/09/26 07:10:05;;;;;;;1.50;0.90;;;18.70;98.20;;;;;;5054326;28;20650;-81
2021/09/26 07:12:32;;;;;;;1.50;0.90;;;18.80;98.20;;;;;;5049726;28;20462;-80
2021/09/26 07:15:01;;;;;;;1.50;0.90;;;18.90;98.20;;;;;;5053274;28;20461;-82
2021/09/26 07:17:29;;;;;;;1.50;1.00;;;19.00;98.20;;;;;;5048688;28;21098;-81
2021/09/26 07:19:57;;;;;;;1.50;1.00;;;19.00;98.20;;;;;;5046073;28;20465;-80
2021/09/26 07:22:27;;;;;;;1.50;0.90;;;19.10;98.20;;;;;;5050949;28;20535;-81
2021/09/26 07:24:56;;;;;;;1.50;0.90;;;19.20;98.20;;;;;;5047333;28;20500;-79
2021/09/26 07:27:28;;;;;;;1.50;0.90;;;19.40;98.20;;;;;;5046470;28;20485;-80
2021/09/26 07:29:56;;;;;;;1.57;1.00;;;19.60;98.20;;;;;;5053808;28;20493;-82
2021/09/26 07:32:23;;;;;;;1.50;1.00;;;19.80;98.20;;;;;;5045604;28;20454;-80
2021/09/26 07:34:51;;;;;;;1.50;0.90;;;19.90;98.20;;;;;;5048078;28;20490;-82
2021/09/26 07:37:19;;;;;;;1.50;0.90;;;20.10;98.20;;;;;;5047936;28;20584;-80
2021/09/26 07:39:49;;;;;;;1.50;0.90;;;20.20;98.20;;;;;;5050056;28;20476;-82
2021/09/26 07:42:16;;;;;;;1.60;1.17;;;20.30;98.20;;;;;;5052842;28;20497;-79
2021/09/26 07:44:43;;;;;;;1.53;0.93;;;20.50;98.20;;;;;;5053470;28;20852;-78
2021/09/26 07:47:10;;;;;;;1.57;0.90;;;20.60;98.20;;;;;;5047071;28;20552;-79
2021/09/26 07:49:37;;;;;;;1.50;0.90;;;20.70;98.20;;;;;;5054380;28;20505;-78
2021/09/26 07:52:06;;;;;;;1.53;0.93;;;20.70;98.20;;;;;;5058244;28;20466;-78
2021/09/26 07:54:33;;;;;;;1.50;0.90;;;20.80;98.20;;;;;;5049108;28;20474;-78
2021/09/26 07:57:04;;;;;;;1.50;1.00;;;20.90;98.20;;;;;;5055988;28;20577;-77
2021/09/26 07:59:31;;;;;;;1.50;0.90;;;21.00;98.20;;;;;;5051315;28;20554;-79
2021/09/26 08:01:59;;;;;;;1.50;0.90;;;21.00;98.20;;;;;;5051603;28;20480;-81
2021/09/26 08:04:28;;;;;;;1.50;0.90;;;21.10;98.20;;;;;;5054498;28;20462;-80
2021/09/26 08:07:10;;;;;;;1.53;0.90;;;21.30;98.20;;;;;;5055203;28;20482;-79
2021/09/26 08:09:42;;;;;;;1.60;1.10;;;21.30;98.20;;;;;;5053817;28;20466;-79
2021/09/26 08:12:15;;;;;;;1.50;0.90;;;21.40;98.20;;;;;;5055742;28;20474;-81
2021/09/26 08:14:41;;;;;;;1.50;0.90;;;21.50;98.20;;;;;;5056745;28;20519;-82
2021/09/26 08:17:08;;;;;;;1.50;0.90;;;21.60;98.20;;;;;;5049460;28;20509;-80
2021/09/26 08:19:36;;;;;;;1.53;0.90;;;21.70;98.20;;;;;;5052140;28;20454;-81
2021/09/26 08:22:05;;;;;;;1.50;0.90;;;21.80;98.20;;;;;;5049058;28;20491;-81
2021/09/26 08:24:33;;;;;;;1.53;0.90;;;22.00;98.20;;;;;;5048041;28;20466;-79
2021/09/26 08:27:01;;;;;;;1.50;0.90;;;22.10;98.20;;;;;;5052198;28;20479;-83
2021/09/26 08:29:34;;;;;;;1.50;0.90;;;22.20;98.20;;;;;;5052840;28;20553;-80
2021/09/26 08:32:02;;;;;;;1.53;0.90;;;22.30;98.20;;;;;;5054578;28;20925;-80
2021/09/26 08:34:42;;;;;;;1.50;0.90;;;22.50;98.20;;;;;;5051541;28;20465;-79
2021/09/26 08:37:28;;;;;;;1.50;0.90;;;22.60;98.20;;;;;;5065624;28;20494;-80
2021/09/26 08:39:56;;;;;;;2.60;1.27;;;22.60;98.20;;;;;;5060657;28;20462;-80
2021/09/26 08:42:23;;;;;;;1.50;0.90;;;22.70;98.20;;;;;;5054414;28;21068;-79
2021/09/26 08:44:55;;;;;;;1.53;0.90;;;22.80;98.20;;;;;;5050404;28;20478;-80
2021/09/26 08:47:23;;;;;;;1.53;0.90;;;22.90;98.20;;;;;;5051977;28;20490;-81
2021/09/26 08:49:51;;;;;;;1.50;0.90;;;23.00;98.20;;;;;;5052082;28;20463;-82
2021/09/26 08:52:18;;;;;;;1.50;0.90;;;23.10;98.20;;;;;;5057496;28;20460;-81
2021/09/26 08:54:46;;;;;;;1.50;0.90;;;23.20;97.90;;;;;;5054154;28;20461;-80
2021/09/26 08:57:33;;;;;;;1.50;0.90;;;23.40;97.70;;;;;;5058074;28;20490;-80
2021/09/26 09:00:01;;;;;;;1.50;0.90;;;23.50;96.80;;;;;;5055142;28;20473;-81
2021/09/26 09:02:28;;;;;;;1.50;0.90;;;23.60;97.00;;;;;;5055296;28;21024;-80
2021/09/26 09:04:58;;;;;;;1.50;0.90;;;23.70;96.60;;;;;;5051428;28;20458;-79
2021/09/26 09:07:26;;;;;;;1.50;0.90;;;23.60;96.40;;;;;;5051745;28;20489;-81
2021/09/26 09:09:54;;;;;;;1.50;0.90;;;23.60;96.10;;;;;;5061204;28;20459;-80
2021/09/26 09:12:26;;;;;;;1.53;0.90;;;23.60;96.20;;;;;;5051951;28;20571;-80
2021/09/26 09:14:55;;;;;;;1.50;0.90;;;23.70;96.30;;;;;;5048759;28;20475;-79
2021/09/26 09:17:27;;;;;;;1.53;0.90;;;23.60;96.40;;;;;;5044447;28;20486;-83
2021/09/26 09:20:17;;;;;;;1.60;1.03;;;23.70;96.70;;;;;;5047015;28;21117;-79
2021/09/26 09:22:47;;;;;;;1.50;0.90;;;23.80;96.00;;;;;;5045041;28;20482;-79
2021/09/26 09:25:33;;;;;;;1.50;0.80;;;23.80;95.90;;;;;;5051028;28;21112;-79
2021/09/26 09:28:01;;;;;;;1.50;0.90;;;23.90;95.40;;;;;;5050025;28;20489;-79
2021/09/26 09:30:34;;;;;;;1.50;0.87;;;23.90;95.60;;;;;;5055246;28;20468;-81
2021/09/26 09:33:03;;;;;;;1.57;0.90;;;24.00;95.90;;;;;;5053562;28;20465;-82
2021/09/26 09:35:38;;;;;;;1.50;0.90;;;24.20;95.70;;;;;;5051420;28;20540;-79
2021/09/26 09:38:07;;;;;;;1.50;0.90;;;24.20;94.30;;;;;;5052756;28;20476;-80
2021/09/26 09:40:38;;;;;;;1.70;1.57;;;24.30;94.60;;;;;;5047092;28;20568;-81
2021/09/26 09:43:06;;;;;;;1.50;0.90;;;24.40;93.70;;;;;;5050241;28;20486;-81
2021/09/26 09:45:35;;;;;;;1.60;1.10;;;24.50;93.50;;;;;;5049959;28;20497;-81
2021/09/26 09:48:21;;;;;;;1.60;0.90;;;24.60;93.90;;;;;;5049226;28;20516;-80
2021/09/26 09:50:57;;;;;;;1.50;0.90;;;24.60;92.70;;;;;;5047013;28;20462;-79
2021/09/26 09:53:34;;;;;;;1.50;0.90;;;24.60;92.60;;;;;;5050025;28;20488;-81
2021/09/26 09:56:18;;;;;;;1.50;0.90;;;24.60;93.10;;;;;;5058334;28;20501;-81
2021/09/26 09:58:48;;;;;;;1.50;0.80;;;24.60;93.10;;;;;;5060714;28;20460;-77
2021/09/26 10:01:17;;;;;;;1.60;1.20;;;24.70;92.80;;;;;;5055198;28;20552;-78
2021/09/26 10:03:49;;;;;;;1.50;0.90;;;24.80;92.70;;;;;;5052629;28;20496;-80
2021/09/26 10:06:40;;;;;;;1.50;0.90;;;24.80;92.40;;;;;;5052678;28;20489;-78
2021/09/26 10:09:20;;;;;;;1.50;0.90;;;24.80;93.00;;;;;;5049606;28;20865;-77
2021/09/26 10:11:49;;;;;;;1.50;0.90;;;24.90;92.70;;;;;;5047160;28;20557;-76
2021/09/26 10:14:16;;;;;;;1.50;0.90;;;25.00;92.10;;;;;;5046801;28;20466;-77
2021/09/26 10:16:44;;;;;;;1.50;0.87;;;25.00;91.80;;;;;;5056622;28;20489;-78
2021/09/26 10:19:13;;;;;;;1.50;0.90;;;25.20;91.40;;;;;;5052206;28;20568;-79
2021/09/26 10:21:41;;;;;;;1.50;0.90;;;25.40;90.90;;;;;;5052107;28;20536;-80
2021/09/26 10:24:09;;;;;;;1.50;0.90;;;25.50;90.00;;;;;;5056568;28;20546;-80
2021/09/26 10:26:39;;;;;;;1.70;1.13;;;25.60;89.80;;;;;;5054679;28;20546;-77
2021/09/26 10:29:09;;;;;;;1.50;0.90;;;25.70;89.60;;;;;;5046077;28;20471;-78
2021/09/26 10:31:37;;;;;;;1.50;0.80;;;25.80;89.40;;;;;;5055987;28;20580;-77
2021/09/26 10:34:05;;;;;;;1.60;1.10;;;25.80;88.50;;;;;;5052852;28;20845;-78
2021/09/26 10:36:38;;;;;;;1.53;0.90;;;25.70;88.70;;;;;;5055375;28;20560;-77
2021/09/26 10:39:08;;;;;;;1.53;0.90;;;25.60;87.90;;;;;;5052381;28;20539;-80
2021/09/26 10:41:35;;;;;;;1.50;0.83;;;25.50;87.50;;;;;;5063414;28;20484;-79
2021/09/26 10:44:24;;;;;;;1.50;0.83;;;25.40;88.70;;;;;;5051425;28;21130;-78
2021/09/26 10:47:15;;;;;;;1.50;0.90;;;25.40;89.40;;;;;;5048524;28;20568;-81
2021/09/26 10:49:44;;;;;;;1.50;0.90;;;25.40;89.30;;;;;;5057061;28;20759;-79
2021/09/26 10:52:30;;;;;;;1.50;0.90;;;25.40;89.50;;;;;;5054812;28;20458;-79
2021/09/26 10:55:29;;;;;;;1.50;0.90;;;25.50;89.20;;;;;;5040641;28;20829;-79
2021/09/26 10:58:15;;;;;;;1.50;0.90;;;25.70;88.50;;;;;;5055579;28;21075;-78
2021/09/26 11:00:53;;;;;;;1.50;0.90;;;25.80;88.00;;;;;;5054704;28;20937;-77
2021/09/26 11:03:21;;;;;;;1.50;0.90;;;25.90;88.00;;;;;;5047577;28;20477;-79
2021/09/26 11:05:49;;;;;;;1.50;0.90;;;26.00;85.80;;;;;;5045744;28;20490;-79
2021/09/26 11:08:43;;;;;;;1.50;0.90;;;25.90;85.80;;;;;;5055324;28;20483;-77
2021/09/26 11:11:35;;;;;;;1.50;0.80;;;25.90;85.80;;;;;;5054047;28;20467;-80
2021/09/26 11:14:03;;;;;;;1.50;0.90;;;25.90;86.10;;;;;;5045621;28;20467;-79
2021/09/26 11:16:51;;;;;;;1.50;0.90;;;25.80;85.40;;;;;;5054132;28;20474;-79
2021/09/26 11:19:21;;;;;;;1.50;0.80;;;25.80;85.40;;;;;;5052717;28;20473;-80
2021/09/26 11:21:51;;;;;;;1.50;0.90;;;25.80;84.70;;;;;;5050627;28;20544;-78
2021/09/26 11:24:42;;;;;;;1.47;0.80;;;25.80;84.70;;;;;;5054350;28;20485;-78
2021/09/26 11:27:13;;;;;;;1.50;0.80;;;25.80;84.50;;;;;;5056009;28;20513;-78
2021/09/26 11:30:28;;;;;;;1.50;0.90;;;25.70;85.40;;;;;;5059944;28;20462;-79
2021/09/26 11:33:06;;;;;;;1.47;0.90;;;25.60;85.60;;;;;;5008040;28;20468;-79
2021/09/26 11:35:35;;;;;;;1.50;0.90;;;25.60;85.90;;;;;;5054677;28;20466;-77
2021/09/26 11:38:05;;;;;;;1.50;0.90;;;25.50;86.90;;;;;;5061870;28;20998;-79
2021/09/26 11:41:01;;;;;;;1.50;0.90;;;25.50;86.30;;;;;;5060279;28;20501;-77
2021/09/26 11:43:33;;;;;;;1.50;0.90;;;25.40;86.60;;;;;;5048969;28;20547;-78
2021/09/26 11:46:01;;;;;;;1.47;0.90;;;25.30;86.70;;;;;;5054906;28;20901;-78
2021/09/26 11:48:36;;;;;;;1.50;0.83;;;25.30;86.80;;;;;;5059587;28;20568;-77
2021/09/26 11:51:10;;;;;;;1.50;0.90;;;25.30;86.80;;;;;;5053297;28;20469;-77
2021/09/26 11:53:38;;;;;;;1.50;0.83;;;25.20;86.90;;;;;;5053535;28;20472;-78
2021/09/26 11:56:14;;;;;;;1.50;0.90;;;25.30;87.00;;;;;;5050543;28;20584;-79
2021/09/26 11:58:41;;;;;;;1.47;0.90;;;25.20;86.80;;;;;;5053379;28;20567;-77
2021/09/26 12:01:08;;;;;;;1.50;0.90;;;25.20;87.20;;;;;;5059005;28;20649;-77
2021/09/26 12:03:36;;;;;;;1.50;0.90;;;25.20;87.10;;;;;;5051027;28;20598;-78
2021/09/26 12:06:04;;;;;;;1.47;0.80;;;25.20;86.90;;;;;;5053594;28;20574;-79
2021/09/26 12:08:38;;;;;;;1.50;0.90;;;25.10;87.20;;;;;;5051471;28;20562;-79
2021/09/26 12:11:11;;;;;;;1.50;0.90;;;25.10;87.50;;;;;;5056995;28;20858;-82
2021/09/26 12:13:50;;;;;;;1.43;0.87;;;25.00;87.90;;;;;;5067450;28;20461;-82
2021/09/26 12:16:18;;;;;;;1.50;0.90;;;25.00;88.00;;;;;;5057744;28;20601;-80
2021/09/26 12:18:53;;;;;;;1.60;1.00;;;24.90;89.10;;;;;;5059166;28;20462;-80
2021/09/26 12:21:21;;;;;;;1.50;0.90;;;24.90;89.50;;;;;;5053797;28;20489;-81
2021/09/26 12:23:54;;;;;;;1.50;0.90;;;24.80;89.90;;;;;;5051809;28;20515;-78
2021/09/26 12:26:26;;;;;;;1.50;0.90;;;24.80;90.00;;;;;;5047654;28;20485;-81
2021/09/26 12:29:19;;;;;;;1.50;0.90;;;24.80;90.60;;;;;;5052306;28;20505;-81
2021/09/26 12:31:51;;;;;;;1.50;0.90;;;24.80;89.10;;;;;;5040696;28;21092;-79
2021/09/26 12:34:29;;;;;;;1.50;0.90;;;24.90;89.10;;;;;;5041766;28;20490;-80
2021/09/26 12:36:57;;;;;;;1.47;0.87;;;24.90;89.00;;;;;;5045557;28;20493;-79
2021/09/26 12:39:28;;;;;;;1.50;0.90;;;24.90;89.10;;;;;;5045118;28;20473;-79
2021/09/26 12:42:00;;;;;;;1.50;0.90;;;24.90;88.70;;;;;;5051882;28;20483;-82
2021/09/26 12:44:36;;;;;;;1.50;0.90;;;24.80;89.10;;;;;;5054848;28;20490;-82
2021/09/26 12:47:06;;;;;;;1.50;1.00;;;24.80;89.00;;;;;;5054778;28;20486;-79
2021/09/26 12:49:37;;;;;;;1.50;0.90;;;24.80;89.30;;;;;;5055622;28;20477;-80
2021/09/26 12:52:13;;;;;;;1.50;0.90;;;24.80;89.70;;;;;;5054794;28;20622;-80
2021/09/26 12:54:46;;;;;;;1.50;0.90;;;24.70;89.60;;;;;;5052382;28;20470;-80
2021/09/26 12:57:23;;;;;;;1.50;0.90;;;24.60;90.00;;;;;;5054553;28;20768;-80
2021/09/26 13:00:10;;;;;;;1.50;0.90;;;24.50;90.40;;;;;;5060127;28;20454;-78
2021/09/26 13:02:41;;;;;;;1.50;0.90;;;24.40;90.90;;;;;;5062233;28;20449;-80
2021/09/26 13:05:11;;;;;;;1.50;0.90;;;24.30;91.00;;;;;;5066931;28;20467;-77